Time;durP1;ratioP1;P1;durP2;ratioP2;P2;SDS_P1;SDS_P2;PMS_P1;PMS_P2;Temp;Humidity;BMP_temperature;BMP_pressure;BME280_temperature;BME280_humidity;BME280_pressure;Samples;Min_cycle;Max_cycle;Signal;HPM_P1;HPM_P2
2022/05/11 00:02:00;;;;;;;;;;;14.20;97.40;;;;;;4954371;28;19933;-87
2022/05/11 00:04:27;;;;;;;;;;;14.30;97.50;;;;;;4946457;29;19930;-86
2022/05/11 00:06:55;;;;;;;;;;;14.20;98.10;;;;;;4922912;29;19922;-86
2022/05/11 00:09:23;;;;;;;;;;;14.30;97.90;;;;;;4957147;29;19933;-87
2022/05/11 00:11:51;;;;;;;;;;;14.10;97.70;;;;;;4946587;29;19973;-85
2022/05/11 00:14:18;;;;;;;;;;;14.20;97.70;;;;;;4904375;29;19933;-87
2022/05/11 00:16:48;;;;;;;;;;;14.20;97.70;;;;;;4920597;29;19927;-87
2022/05/11 00:19:20;;;;;;;;;;;14.20;97.80;;;;;;4936784;29;19931;-87
2022/05/11 00:21:48;;;;;;;;;;;14.20;97.80;;;;;;4920566;29;19927;-87
2022/05/11 00:24:15;;;;;;;;;;;14.10;98.00;;;;;;4907065;29;20290;-87
2022/05/11 00:26:43;;;;;;;;;;;14.20;98.20;;;;;;4973308;28;19926;-86
2022/05/11 00:29:11;;;;;;;;;;;14.10;97.90;;;;;;4923964;29;19930;-86
2022/05/11 00:31:39;;;;;;;;;;;14.10;98.20;;;;;;4917468;29;19926;-87
2022/05/11 00:34:07;;;;;;;;;;;13.30;97.90;;;;;;4917411;29;19931;-86
2022/05/11 00:36:35;;;;;;;;;;;14.70;98.30;;;;;;4918496;29;19934;-87
2022/05/11 00:39:03;;;;;;;;;;;14.10;98.20;;;;;;4922645;29;19931;-86
2022/05/11 00:41:30;;;;;;;;;;;14.00;98.30;;;;;;4938804;29;19926;-87
2022/05/11 00:43:59;;;;;;;;;;;14.00;98.40;;;;;;4956068;29;20306;-87
2022/05/11 00:46:29;;;;;;;;;;;14.00;98.20;;;;;;4948432;28;19957;-87
2022/05/11 00:51:48;;;;;;;;;;;14.00;98.40;;;;;;4954432;29;19926;-86
2022/05/11 00:54:17;;;;;;;;;;;13.90;98.60;;;;;;4969445;28;19933;-86
2022/05/11 00:56:48;;;;;;;;;;;13.90;98.70;;;;;;4971401;28;20382;-87
2022/05/11 00:59:17;;;;;;;;;;;13.80;98.70;;;;;;4949965;29;19934;-87
2022/05/11 01:01:45;;;;;;;;;;;14.10;98.80;;;;;;4925072;29;20323;-87
2022/05/11 01:04:15;;;;;;;;;;;13.80;98.80;;;;;;4928879;29;19931;-87
2022/05/11 01:06:43;;;;;;;;;;;13.80;99.10;;;;;;4914026;29;19961;-86
2022/05/11 01:09:12;;;;;;;;;;;13.80;98.90;;;;;;4902970;29;20571;-87
2022/05/11 01:11:48;;;;;;;;;;;13.70;99.00;;;;;;4916141;29;19926;-86
2022/05/11 01:14:17;;;;;;;;;;;13.70;98.90;;;;;;4950157;29;19927;-87
2022/05/11 01:16:46;;;;;;;;;;;13.70;99.00;;;;;;4955389;28;19931;-87
2022/05/11 01:19:18;;;;;;;;;;;13.70;99.50;;;;;;4916547;29;20217;-86
2022/05/11 01:21:49;;;;;;;;;;;13.70;99.40;;;;;;4901786;29;19926;-87
2022/05/11 01:24:34;;;;;;;;;;;13.60;99.70;;;;;;4948953;29;19937;-86
2022/05/11 01:27:20;;;;;;;;;;;13.60;99.80;;;;;;4893573;29;19931;-86
2022/05/11 01:29:48;;;;;;;;;;;13.60;99.80;;;;;;4922905;29;19927;-87
2022/05/11 01:32:15;;;;;;;;;;;13.50;99.90;;;;;;4919529;29;20306;-88
2022/05/11 01:34:43;;;;;;;;;;;13.50;99.90;;;;;;4930198;29;19939;-86
2022/05/11 01:37:10;;;;;;;;;;;13.50;99.90;;;;;;4935501;29;20044;-86
2022/05/11 01:39:38;;;;;;;;;;;13.50;99.90;;;;;;4921005;29;19930;-87
2022/05/11 01:42:05;;;;;;;;;;;13.50;99.90;;;;;;4924913;29;19927;-87
2022/05/11 01:44:33;;;;;;;;;;;13.40;99.90;;;;;;4914172;29;19938;-87
2022/05/11 01:47:01;;;;;;;;;;;13.40;99.90;;;;;;4880354;29;19939;-86
2022/05/11 01:49:28;;;;;;;;;;;13.30;99.90;;;;;;4925907;29;19933;-86
2022/05/11 01:51:56;;;;;;;;;;;13.40;99.90;;;;;;4913202;29;19930;-87
2022/05/11 01:54:24;;;;;;;;;;;13.30;99.90;;;;;;4918488;29;19927;-87
2022/05/11 01:56:52;;;;;;;;;;;13.30;99.90;;;;;;4897684;29;19931;-87
2022/05/11 01:59:21;;;;;;;;;;;13.20;99.90;;;;;;4925152;29;19933;-87
2022/05/11 02:01:48;;;;;;;;;;;13.20;99.90;;;;;;4919461;29;20406;-87
2022/05/11 02:09:49;;;;;;;;;;;13.10;99.90;;;;;;4930593;29;19934;-87
2022/05/11 02:12:17;;;;;;;;;;;13.00;99.90;;;;;;4919320;29;19930;-86
2022/05/11 02:14:45;;;;;;;;;;;13.00;99.90;;;;;;4939019;29;19926;-87
2022/05/11 02:17:12;;;;;;;;;;;12.90;99.90;;;;;;4934753;29;19938;-86
2022/05/11 02:19:42;;;;;;;;;;;13.00;99.90;;;;;;4924914;29;20149;-86
2022/05/11 02:22:10;;;;;;;;;;;13.00;99.90;;;;;;4930853;29;19927;-87
2022/05/11 02:24:37;;;;;;;;;;;13.20;99.90;;;;;;4934869;29;19931;-87
2022/05/11 02:27:05;;;;;;;;;;;13.00;99.90;;;;;;4925999;29;19927;-86
2022/05/11 02:29:33;;;;;;;;;;;13.00;99.90;;;;;;4904394;29;19931;-86
2022/05/11 02:32:02;;;;;;;;;;;13.00;99.90;;;;;;4928690;29;20460;-85
2022/05/11 02:37:16;;;;;;;;;;;13.00;99.90;;;;;;4943306;29;19938;-86
2022/05/11 02:39:45;;;;;;;;;;;13.00;99.90;;;;;;4929663;29;19927;-87
2022/05/11 02:42:17;;;;;;;;;;;13.00;99.90;;;;;;4923910;29;20298;-86
2022/05/11 02:44:45;;;;;;;;;;;13.00;99.90;;;;;;4915192;29;19926;-87
2022/05/11 02:47:13;;;;;;;;;;;13.10;99.90;;;;;;4930584;29;19946;-87
2022/05/11 02:49:40;;;;;;;;;;;13.00;99.90;;;;;;4915744;29;19930;-86
2022/05/11 02:52:08;;;;;;;;;;;12.80;99.90;;;;;;4918282;29;19930;-87
2022/05/11 02:54:36;;;;;;;;;;;13.00;99.90;;;;;;4925560;29;20017;-87
2022/05/11 02:57:04;;;;;;;;;;;12.90;99.90;;;;;;4917095;29;19946;-87
2022/05/11 02:59:37;;;;;;;;;;;13.00;99.90;;;;;;4914274;29;19938;-87
2022/05/11 03:02:04;;;;;;;;;;;13.00;99.90;;;;;;4927587;29;19935;-87
2022/05/11 03:04:33;;;;;;;;;;;13.00;99.90;;;;;;4928057;29;19931;-87
2022/05/11 03:07:00;;;;;;;;;;;13.00;99.90;;;;;;4902813;29;19926;-88
2022/05/11 03:09:29;;;;;;;;;;;13.00;99.90;;;;;;4921125;29;19927;-87
2022/05/11 03:11:57;;;;;;;;;;;13.00;99.90;;;;;;4927774;29;19926;-88
2022/05/11 03:14:24;;;;;;;;;;;13.00;99.90;;;;;;4942041;29;20390;-87
2022/05/11 03:16:52;;;;;;;;;;;13.20;99.90;;;;;;4942476;29;19934;-88
2022/05/11 03:19:19;;;;;;;;;;;13.10;99.90;;;;;;4577062;29;9999912;-87
2022/05/11 03:21:47;;;;;;;;;;;13.10;99.90;;;;;;4936913;29;19931;-87
2022/05/11 03:24:15;;;;;;;;;;;13.10;99.90;;;;;;4935844;29;20302;-87
2022/05/11 03:26:42;;;;;;;;;;;13.10;99.90;;;;;;4938672;28;19926;-86
2022/05/11 03:29:11;;;;;;;;;;;13.10;99.90;;;;;;4955128;29;19927;-87
2022/05/11 03:31:39;;;;;;;;;;;13.00;99.90;;;;;;4916680;29;19934;-87
2022/05/11 03:36:53;;;;;;;;;;;13.00;99.90;;;;;;4919474;29;19931;-87
2022/05/11 03:39:22;;;;;;;;;;;13.00;99.90;;;;;;4936958;29;19938;-87
2022/05/11 03:41:50;;;;;;;;;;;13.00;99.90;;;;;;4953149;28;19927;-87
2022/05/11 03:44:17;;;;;;;;;;;13.20;99.90;;;;;;4937196;29;19927;-87
2022/05/11 03:46:45;;;;;;;;;;;13.00;99.90;;;;;;4949472;28;20660;-87
2022/05/11 03:49:14;;;;;;;;;;;12.90;99.90;;;;;;4925351;29;19937;-86
2022/05/11 03:51:41;;;;;;;;;;;13.30;99.90;;;;;;4953126;29;20563;-87
2022/05/11 03:54:09;;;;;;;;;;;12.80;99.90;;;;;;4936532;29;19926;-86
2022/05/11 03:56:37;;;;;;;;;;;12.80;99.90;;;;;;4955348;28;19938;-87
2022/05/11 03:59:05;;;;;;;;;;;12.70;99.90;;;;;;4944936;29;20410;-86
2022/05/11 04:01:33;;;;;;;;;;;12.70;99.90;;;;;;4935497;29;19927;-86
2022/05/11 04:04:00;;;;;;;;;;;12.70;99.90;;;;;;4920371;29;19926;-86
2022/05/11 04:06:29;;;;;;;;;;;12.60;99.90;;;;;;4920891;29;19949;-87
2022/05/11 04:08:58;;;;;;;;;;;12.50;99.90;;;;;;4943077;29;19934;-86
2022/05/11 04:11:30;;;;;;;;;;;12.50;99.90;;;;;;4928283;28;19926;-86
2022/05/11 04:14:12;;;;;;;;;;;12.70;99.90;;;;;;4970594;28;20329;-86
2022/05/11 04:16:40;;;;;;;;;;;12.50;99.90;;;;;;4943162;29;19927;-87
2022/05/11 04:19:18;;;;;;;;;;;12.50;99.90;;;;;;4905638;29;19931;-87
2022/05/11 04:21:47;;;;;;;;;;;12.40;99.90;;;;;;4904247;29;19934;-87
2022/05/11 04:24:17;;;;;;;;;;;12.40;99.90;;;;;;4902223;29;19933;-87
2022/05/11 04:26:46;;;;;;;;;;;12.40;99.90;;;;;;4944725;28;19966;-86
2022/05/11 04:29:14;;;;;;;;;;;12.40;99.90;;;;;;4921024;29;20764;-87
2022/05/11 04:31:53;;;;;;;;;;;12.80;99.90;;;;;;4926017;29;20275;-86
2022/05/11 04:34:25;;;;;;;;;;;12.40;99.90;;;;;;4903236;29;19931;-88
2022/05/11 04:36:52;;;;;;;;;;;12.40;99.90;;;;;;4907778;29;19930;-86
2022/05/11 04:39:22;;;;;;;;;;;12.30;99.90;;;;;;4935724;29;19933;-87
2022/05/11 04:41:51;;;;;;;;;;;12.40;99.90;;;;;;4943447;28;19941;-87
2022/05/11 04:44:19;;;;;;;;;;;12.30;99.90;;;;;;4934228;29;20378;-88
2022/05/11 04:46:51;;;;;;;;;;;12.30;99.90;;;;;;4909719;29;19927;-86
2022/05/11 04:49:40;;;;;;;;;;;12.30;99.90;;;;;;4906614;29;19939;-87
2022/05/11 04:52:11;;;;;;;;;;;12.30;99.90;;;;;;4891042;29;19934;-87
2022/05/11 04:54:48;;;;;;;;;;;12.30;99.90;;;;;;4926413;28;20468;-86
2022/05/11 04:57:20;;;;;;;;;;;12.30;99.90;;;;;;4932095;29;19931;-87
2022/05/11 04:59:56;;;;;;;;;;;12.40;99.90;;;;;;4936086;29;19934;-86
2022/05/11 05:02:30;;;;;;;;;;;12.30;99.90;;;;;;4928534;29;20306;-87
2022/05/11 05:05:05;;;;;;;;;;;12.30;99.90;;;;;;4934973;29;19933;-86
2022/05/11 05:07:41;;;;;;;;;;;12.30;99.90;;;;;;4896347;29;20480;-87
2022/05/11 05:10:10;;;;;;;;;;;12.40;99.90;;;;;;4899544;29;19938;-88
2022/05/11 05:12:38;;;;;;;;;;;12.40;99.90;;;;;;4925466;29;19927;-87
2022/05/11 05:15:21;;;;;;;;;;;12.40;99.90;;;;;;4921400;28;20394;-86
2022/05/11 05:17:52;;;;;;;;;;;12.50;99.90;;;;;;4930803;29;19930;-87
2022/05/11 05:20:20;;;;;;;;;;;12.50;99.90;;;;;;4914057;29;19934;-87
2022/05/11 05:22:47;;;;;;;;;;;12.50;99.90;;;;;;4930333;29;19926;-87
2022/05/11 05:25:21;;;;;;;;;;;12.50;99.90;;;;;;4928751;28;20365;-88
2022/05/11 05:27:49;;;;;;;;;;;12.50;99.90;;;;;;4917594;29;20382;-87
2022/05/11 05:33:04;;;;;;;;;;;12.50;99.90;;;;;;4931166;29;19926;-87
2022/05/11 05:35:35;;;;;;;;;;;12.60;99.90;;;;;;4931371;29;19934;-87
2022/05/11 05:38:04;;;;;;;;;;;12.60;99.90;;;;;;4922355;29;19927;-88
2022/05/11 05:40:32;;;;;;;;;;;12.60;99.90;;;;;;4902818;29;19931;-87
2022/05/11 05:43:04;;;;;;;;;;;12.70;99.90;;;;;;4921761;29;19927;-87
2022/05/11 05:45:32;;;;;;;;;;;12.70;99.90;;;;;;4941462;29;19937;-86
2022/05/11 05:48:00;;;;;;;;;;;12.70;99.90;;;;;;4942704;29;19938;-88
2022/05/11 05:50:28;;;;;;;;;;;12.70;99.90;;;;;;4941609;29;19946;-86
2022/05/11 05:52:55;;;;;;;;;;;12.80;99.90;;;;;;4953771;29;19953;-86
2022/05/11 05:55:23;;;;;;;;;;;12.80;99.90;;;;;;4910847;29;19931;-86
2022/05/11 05:57:50;;;;;;;;;;;12.90;99.90;;;;;;4902106;29;19947;-88
2022/05/11 06:00:24;;;;;;;;;;;13.00;99.90;;;;;;4912329;29;20402;-87
2022/05/11 06:02:53;;;;;;;;;;;13.00;99.90;;;;;;4925507;29;19931;-87
2022/05/11 06:05:21;;;;;;;;;;;13.10;99.90;;;;;;4929606;29;19934;-88
2022/05/11 06:07:49;;;;;;;;;;;13.20;99.90;;;;;;4925756;29;19927;-87
2022/05/11 06:10:16;;;;;;;;;;;13.30;99.90;;;;;;4926690;29;19931;-88
2022/05/11 06:12:44;;;;;;;;;;;13.40;99.90;;;;;;4910769;29;19927;-88
2022/05/11 06:15:13;;;;;;;;;;;13.60;99.90;;;;;;4922741;29;19934;-87
2022/05/11 06:17:42;;;;;;;;;;;13.60;99.90;;;;;;4911632;29;20611;-87
2022/05/11 06:20:10;;;;;;;;;;;13.70;99.90;;;;;;4930611;29;19927;-87
2022/05/11 06:22:41;;;;;;;;;;;13.20;99.90;;;;;;4946775;29;19931;-86
2022/05/11 06:25:12;;;;;;;;;;;14.00;99.90;;;;;;4916397;29;19941;-88
2022/05/11 06:28:23;;;;;;;;;;;13.90;99.90;;;;;;4563131;29;9999918;-88
2022/05/11 06:31:12;;;;;;;;;;;14.00;99.90;;;;;;4908251;29;19977;-87
2022/05/11 06:33:46;;;;;;;;;;;14.00;99.90;;;;;;4910289;29;19931;-88
2022/05/11 06:36:19;;;;;;;;;;;14.10;99.90;;;;;;4907158;29;19934;-89
2022/05/11 06:38:49;;;;;;;;;;;14.10;99.90;;;;;;4913367;29;19927;-87
2022/05/11 06:41:18;;;;;;;;;;;14.20;99.90;;;;;;4896923;29;19938;-87
2022/05/11 06:43:46;;;;;;;;;;;14.10;99.90;;;;;;4896236;29;19934;-89
2022/05/11 06:46:14;;;;;;;;;;;14.20;99.90;;;;;;4911040;29;19954;-89
2022/05/11 06:48:42;;;;;;;;;;;14.20;99.90;;;;;;4914114;29;19927;-89
2022/05/11 06:51:10;;;;;;;;;;;14.20;99.90;;;;;;4897785;29;20029;-89
2022/05/11 06:59:21;;;;;;;;;;;14.30;99.90;;;;;;4906789;29;19934;-89
2022/05/11 07:01:53;;;;;;;;;;;14.10;99.90;;;;;;4893987;29;19930;-87
2022/05/11 07:04:37;;;;;;;;;;;14.50;99.90;;;;;;4895789;29;19931;-87
2022/05/11 07:07:06;;;;;;;;;;;14.60;99.90;;;;;;4909137;29;19942;-88
2022/05/11 07:09:34;;;;;;;;;;;14.70;99.90;;;;;;4912948;29;19941;-88
2022/05/11 07:12:21;;;;;;;;;;;14.80;99.90;;;;;;4895136;29;19939;-87
2022/05/11 07:14:52;;;;;;;;;;;14.90;99.90;;;;;;4913013;29;19934;-87
2022/05/11 07:17:25;;;;;;;;;;;14.90;99.90;;;;;;4929265;29;19927;-87
2022/05/11 07:19:57;;;;;;;;;;;14.90;99.90;;;;;;4941781;29;19935;-88
2022/05/11 07:22:25;;;;;;;;;;;15.00;99.90;;;;;;4914368;29;19926;-89
2022/05/11 07:24:53;;;;;;;;;;;15.00;99.90;;;;;;4901996;29;19942;-89
2022/05/11 07:27:22;;;;;;;;;;;15.00;99.90;;;;;;4936334;28;19930;-88
2022/05/11 07:29:51;;;;;;;;;;;15.10;99.90;;;;;;4931521;29;19927;-87
2022/05/11 07:32:19;;;;;;;;;;;15.20;99.90;;;;;;4915314;29;19941;-88
2022/05/11 07:34:47;;;;;;;;;;;13.60;99.90;;;;;;4931989;29;19927;-86
2022/05/11 07:37:14;;;;;;;;;;;15.40;99.90;;;;;;4965629;29;19926;-87
2022/05/11 07:39:44;;;;;;;;;;;15.50;99.90;;;;;;4934937;29;19930;-88
2022/05/11 07:42:12;;;;;;;;;;;15.60;99.90;;;;;;4903482;29;19930;-90
2022/05/11 07:44:39;;;;;;;;;;;15.60;99.90;;;;;;4913267;29;19930;-88
2022/05/11 07:47:10;;;;;;;;;;;15.70;99.40;;;;;;4937577;29;19930;-88
2022/05/11 07:49:39;;;;;;;;;;;15.70;99.50;;;;;;4930303;29;19934;-89
2022/05/11 07:52:10;;;;;;;;;;;15.80;99.40;;;;;;4929849;29;19935;-88
2022/05/11 07:54:48;;;;;;;;;;;16.00;99.50;;;;;;4930606;28;19931;-88
2022/05/11 08:00:06;;;;;;;;;;;16.00;98.40;;;;;;4946089;29;19930;-89
2022/05/11 08:02:39;;;;;;;;;;;16.30;98.40;;;;;;4914910;29;20322;-88
2022/05/11 08:05:10;;;;;;;;;;;16.00;97.60;;;;;;4929590;29;20441;-88
2022/05/11 08:07:40;;;;;;;;;;;16.00;97.80;;;;;;4916148;29;19945;-88
2022/05/11 08:10:10;;;;;;;;;;;16.00;97.90;;;;;;4915607;29;20396;-89
2022/05/11 08:12:38;;;;;;;;;;;16.10;97.60;;;;;;4917215;28;19926;-88
2022/05/11 08:15:06;;;;;;;;;;;16.10;97.60;;;;;;4914930;28;19959;-87
2022/05/11 08:17:35;;;;;;;;;;;16.10;97.60;;;;;;4914679;29;19930;-89
2022/05/11 08:20:14;;;;;;;;;;;16.00;97.50;;;;;;4913677;29;19962;-88
2022/05/11 08:22:45;;;;;;;;;;;16.10;97.10;;;;;;4927028;29;20705;-89
2022/05/11 08:25:15;;;;;;;;;;;16.10;97.40;;;;;;4931954;29;20442;-88
2022/05/11 08:27:44;;;;;;;;;;;15.90;97.20;;;;;;4914902;29;19961;-88
2022/05/11 08:36:07;;;;;;;;;;;16.30;97.00;;;;;;4915584;28;19935;-89
2022/05/11 08:38:36;;;;;;;;;;;16.40;96.50;;;;;;4940397;28;20409;-89
2022/05/11 08:41:18;;;;;;;;;;;16.40;96.40;;;;;;4908712;28;20020;-89
2022/05/11 08:43:47;;;;;;;;;;;16.40;96.20;;;;;;4924145;28;19937;-87
2022/05/11 08:46:23;;;;;;;;;;;16.40;96.20;;;;;;4898169;28;19926;-87
2022/05/11 08:48:53;;;;;;;;;;;16.30;96.10;;;;;;4931088;28;19937;-89
2022/05/11 08:51:39;;;;;;;;;;;15.60;96.30;;;;;;4914088;28;19938;-90
2022/05/11 08:54:34;;;;;;;;;;;16.50;96.20;;;;;;4941138;28;20407;-88
2022/05/11 08:57:07;;;;;;;;;;;16.70;95.80;;;;;;4906281;29;19938;-89
2022/05/11 08:59:36;;;;;;;;;;;16.90;95.50;;;;;;4929526;29;19931;-89
2022/05/11 09:02:12;;;;;;;;;;;16.80;94.90;;;;;;4912962;28;19934;-88
2022/05/11 09:04:48;;;;;;;;;;;16.80;94.70;;;;;;4938052;28;19958;-88
2022/05/11 09:07:16;;;;;;;;;;;16.70;94.80;;;;;;4892812;28;19934;-87
2022/05/11 09:09:46;;;;;;;;;;;16.70;94.90;;;;;;4927677;28;19934;-88
2022/05/11 09:13:10;;;;;;;;;;;16.90;95.00;;;;;;4921095;28;19941;-88
2022/05/11 09:15:59;;;;;;;;;;;16.90;94.90;;;;;;4921131;28;19930;-87
2022/05/11 09:18:29;;;;;;;;;;;17.00;94.50;;;;;;4917912;28;20095;-88
2022/05/11 09:20:59;;;;;;;;;;;17.00;94.70;;;;;;4911079;28;19941;-85
2022/05/11 09:23:32;;;;;;;;;;;17.10;94.80;;;;;;4913961;28;19934;-88
2022/05/11 09:26:02;;;;;;;;;;;17.30;94.50;;;;;;4928653;28;19942;-88
2022/05/11 09:28:31;;;;;;;;;;;17.90;93.80;;;;;;4926593;29;20018;-89
2022/05/11 09:31:20;;;;;;;;;;;17.40;93.90;;;;;;4926747;29;19931;-88
2022/05/11 09:33:59;;;;;;;;;;;17.40;93.50;;;;;;4929126;28;20496;-89
2022/05/11 09:36:55;;;;;;;;;;;17.50;93.60;;;;;;4908046;29;19946;-88
2022/05/11 09:39:24;;;;;;;;;;;17.50;93.50;;;;;;4892242;29;19930;-89
2022/05/11 09:41:54;;;;;;;;;;;17.60;93.50;;;;;;4939836;28;19931;-88
2022/05/11 09:44:27;;;;;;;;;;;17.70;93.30;;;;;;4894416;29;19934;-89
2022/05/11 09:46:55;;;;;;;;;;;17.80;92.90;;;;;;4925062;29;19938;-89
2022/05/11 09:49:24;;;;;;;;;;;17.00;92.40;;;;;;4896231;29;20313;-90
2022/05/11 09:51:56;;;;;;;;;;;17.90;92.60;;;;;;4910404;29;19931;-90
2022/05/11 09:54:29;;;;;;;;;;;17.90;92.30;;;;;;4929772;29;20320;-90
2022/05/11 09:56:59;;;;;;;;;;;18.00;92.40;;;;;;4905798;29;19930;-88
2022/05/11 09:59:27;;;;;;;;;;;18.00;92.30;;;;;;4921333;29;20275;-90
2022/05/11 10:02:01;;;;;;;;;;;18.80;92.40;;;;;;4912090;29;19945;-90
2022/05/11 10:04:31;;;;;;;;;;;18.00;91.90;;;;;;4890595;29;20363;-90
2022/05/11 10:07:05;;;;;;;;;;;18.00;92.00;;;;;;4923633;28;20234;-91
2022/05/11 10:09:38;;;;;;;;;;;18.00;92.10;;;;;;4923960;29;19942;-89
2022/05/11 10:12:08;;;;;;;;;;;17.90;91.90;;;;;;4938894;29;19942;-90
2022/05/11 10:23:27;;;;;;;;;;;17.30;92.70;;;;;;4922713;29;19934;-90
2022/05/11 10:26:01;;;;;;;;;;;17.50;93.00;;;;;;4933711;29;19931;-89
2022/05/11 10:28:38;;;;;;;;;;;17.50;93.30;;;;;;4939459;28;19935;-90
2022/05/11 10:31:15;;;;;;;;;;;17.50;93.10;;;;;;4912747;28;20898;-90
2022/05/11 10:33:46;;;;;;;;;;;17.60;92.70;;;;;;4926856;28;19937;-90
2022/05/11 10:36:38;;;;;;;;;;;17.70;92.60;;;;;;4952215;28;19953;-90
2022/05/11 10:39:11;;;;;;;;;;;17.70;92.40;;;;;;4908671;28;19934;-90
2022/05/11 10:41:44;;;;;;;;;;;17.80;92.50;;;;;;4957479;28;19950;-89
2022/05/11 10:44:15;;;;;;;;;;;17.70;92.40;;;;;;4942159;28;19931;-90
2022/05/11 10:47:01;;;;;;;;;;;17.70;92.20;;;;;;4922352;28;19930;-91
2022/05/11 10:49:41;;;;;;;;;;;17.80;92.40;;;;;;4936596;28;19965;-91
2022/05/11 10:52:12;;;;;;;;;;;17.50;92.20;;;;;;4927417;28;19926;-90
2022/05/11 10:54:59;;;;;;;;;;;17.60;92.20;;;;;;4927111;28;19926;-89
2022/05/11 10:57:45;;;;;;;;;;;17.50;92.30;;;;;;4917790;28;19934;-89
2022/05/11 11:00:43;;;;;;;;;;;17.40;92.60;;;;;;4916227;28;20405;-89
2022/05/11 11:03:30;;;;;;;;;;;17.40;92.90;;;;;;4916512;28;19930;-89
2022/05/11 11:09:11;;;;;;;;;;;17.50;93.00;;;;;;4952536;28;19986;-90
2022/05/11 11:11:46;;;;;;;;;;;17.50;92.80;;;;;;4936313;28;19938;-89
2022/05/11 11:14:29;;;;;;;;;;;18.40;93.20;;;;;;4921874;28;19935;-90
2022/05/11 11:17:06;;;;;;;;;;;17.20;92.90;;;;;;4914198;28;19938;-89
2022/05/11 11:19:34;;;;;;;;;;;17.10;92.90;;;;;;4915124;28;19961;-89
2022/05/11 11:22:04;;;;;;;;;;;17.00;93.30;;;;;;4935198;28;19930;-90
2022/05/11 11:24:34;;;;;;;;;;;17.00;93.50;;;;;;4936784;28;19926;-89
2022/05/11 11:27:03;;;;;;;;;;;17.00;94.00;;;;;;4930582;28;19937;-89
2022/05/11 11:29:58;;;;;;;;;;;17.00;94.40;;;;;;4928564;28;19934;-88
2022/05/11 11:32:28;;;;;;;;;;;16.90;94.70;;;;;;4954278;28;19926;-89
2022/05/11 11:35:15;;;;;;;;;;;16.90;95.50;;;;;;4921314;28;19926;-89
2022/05/11 11:37:44;;;;;;;;;;;16.90;95.10;;;;;;4927067;28;19930;-89
2022/05/11 11:40:21;;;;;;;;;;;16.90;95.40;;;;;;4900107;28;19930;-89
2022/05/11 11:42:52;;;;;;;;;;;16.80;95.30;;;;;;4909417;28;19934;-88
2022/05/11 11:45:26;;;;;;;;;;;16.70;95.70;;;;;;4912894;28;19945;-89
2022/05/11 11:48:03;;;;;;;;;;;16.70;96.20;;;;;;4912222;28;19930;-88
2022/05/11 11:50:48;;;;;;;;;;;16.50;96.10;;;;;;4938805;28;19926;-88
2022/05/11 11:53:21;;;;;;;;;;;16.50;96.60;;;;;;4933915;28;20321;-88
2022/05/11 11:55:50;;;;;;;;;;;16.40;96.90;;;;;;4932166;28;19937;-89
2022/05/11 11:58:29;;;;;;;;;;;16.50;97.30;;;;;;4912103;28;19937;-88
2022/05/11 12:01:03;;;;;;;;;;;16.50;97.00;;;;;;4928716;28;19926;-88
2022/05/11 12:03:33;;;;;;;;;;;16.60;97.10;;;;;;4925583;28;19937;-89
2022/05/11 12:17:32;;;;;;;;;;;16.90;97.70;;;;;;4913694;28;19930;-87
2022/05/11 12:20:04;;;;;;;;;;;16.90;97.80;;;;;;4913879;28;20212;-87
2022/05/11 12:22:36;;;;;;;;;;;16.80;98.20;;;;;;4926756;28;20487;-89
2022/05/11 12:25:09;;;;;;;;;;;16.70;98.40;;;;;;4935093;28;19942;-88
2022/05/11 12:27:39;;;;;;;;;;;16.70;98.80;;;;;;4909911;29;19945;-87
2022/05/11 12:30:13;;;;;;;;;;;16.70;98.90;;;;;;4922255;29;19934;-87
2022/05/11 12:32:47;;;;;;;;;;;16.70;99.20;;;;;;4915426;29;19938;-92
2022/05/11 12:35:45;;;;;;;;;;;16.70;99.50;;;;;;4918611;29;19931;-89
2022/05/11 12:38:13;;;;;;;;;;;16.80;99.70;;;;;;4891995;29;19930;-88
2022/05/11 12:40:47;;;;;;;;;;;16.90;99.70;;;;;;4896923;29;19941;-89
2022/05/11 12:43:24;;;;;;;;;;;16.80;99.90;;;;;;4905287;29;20044;-89
2022/05/11 12:45:54;;;;;;;;;;;16.80;99.90;;;;;;4917165;29;19937;-88
2022/05/11 12:48:24;;;;;;;;;;;16.70;99.90;;;;;;4911277;29;19931;-89
2022/05/11 12:50:56;;;;;;;;;;;16.60;99.90;;;;;;4915855;29;19938;-88
2022/05/11 12:53:27;;;;;;;;;;;16.60;99.90;;;;;;4925836;29;19930;-89
2022/05/11 12:56:07;;;;;;;;;;;16.70;99.90;;;;;;4909400;29;20402;-88
2022/05/11 12:58:40;;;;;;;;;;;16.60;99.90;;;;;;4911652;29;20378;-87
2022/05/11 13:01:14;;;;;;;;;;;16.50;99.90;;;;;;4923779;29;19961;-91
2022/05/11 13:03:45;;;;;;;;;;;16.40;99.90;;;;;;4905943;29;20465;-88
2022/05/11 13:06:32;;;;;;;;;;;16.40;99.90;;;;;;4939487;29;19931;-88
2022/05/11 13:09:07;;;;;;;;;;;16.30;99.90;;;;;;4895845;29;19965;-89
2022/05/11 13:11:36;;;;;;;;;;;16.20;99.90;;;;;;4918429;29;19927;-87
2022/05/11 13:14:10;;;;;;;;;;;16.00;99.90;;;;;;4908979;29;19946;-87
2022/05/11 13:16:45;;;;;;;;;;;16.00;99.90;;;;;;4936592;29;19934;-87
2022/05/11 13:19:32;;;;;;;;;;;15.90;99.90;;;;;;4254125;29;10000731;-86
2022/05/11 13:22:05;;;;;;;;;;;15.50;99.90;;;;;;4913328;29;19941;-86
2022/05/11 13:24:38;;;;;;;;;;;15.70;99.90;;;;;;4922142;29;19931;-85
2022/05/11 13:27:26;;;;;;;;;;;15.80;99.90;;;;;;4923454;28;19938;-87
2022/05/11 13:30:07;;;;;;;;;;;15.80;99.90;;;;;;4956988;28;19931;-86
2022/05/11 13:32:48;;;;;;;;;;;15.80;99.90;;;;;;4935697;28;19937;-88
2022/05/11 13:35:21;;;;;;;;;;;15.80;99.90;;;;;;4933284;28;19931;-87
2022/05/11 13:38:02;;;;;;;;;;;15.80;99.90;;;;;;4915348;28;19926;-88
2022/05/11 13:40:31;;;;;;;;;;;15.90;99.90;;;;;;4932965;28;19954;-86
2022/05/11 13:42:59;;;;;;;;;;;15.90;99.90;;;;;;4932404;28;19930;-86
2022/05/11 13:45:28;;;;;;;;;;;15.80;99.90;;;;;;4942690;28;19926;-87
2022/05/11 13:48:15;;;;;;;;;;;15.80;99.90;;;;;;4942780;28;19934;-87
2022/05/11 13:50:49;;;;;;;;;;;15.70;99.90;;;;;;4915288;28;19930;-86
2022/05/11 13:53:27;;;;;;;;;;;15.70;99.90;;;;;;4945009;28;19941;-87
2022/05/11 13:56:04;;;;;;;;;;;15.70;99.90;;;;;;4954031;28;19941;-89
2022/05/11 13:58:34;;;;;;;;;;;15.60;99.90;;;;;;4938824;28;19949;-86
2022/05/11 14:01:09;;;;;;;;;;;15.60;99.90;;;;;;4938704;28;19926;-86
2022/05/11 14:03:38;;;;;;;;;;;15.60;99.90;;;;;;4956218;28;19942;-87
2022/05/11 14:06:08;;;;;;;;;;;15.60;99.90;;;;;;4924940;28;20463;-86
2022/05/11 14:08:40;;;;;;;;;;;15.60;99.90;;;;;;4929747;28;19935;-87
2022/05/11 14:11:17;;;;;;;;;;;15.60;99.90;;;;;;4959524;28;19973;-87
2022/05/11 14:13:45;;;;;;;;;;;15.60;99.90;;;;;;4941888;28;19927;-86
2022/05/11 14:16:14;;;;;;;;;;;15.60;99.90;;;;;;4959119;28;19957;-86
2022/05/11 14:18:44;;;;;;;;;;;15.40;99.90;;;;;;4942372;28;19941;-87
2022/05/11 14:21:11;;;;;;;;;;;15.80;99.90;;;;;;4922801;28;19942;-87
2022/05/11 14:23:41;;;;;;;;;;;15.70;99.90;;;;;;4938377;28;19934;-88
2022/05/11 14:26:09;;;;;;;;;;;15.90;99.90;;;;;;4925099;28;19934;-88
2022/05/11 14:28:38;;;;;;;;;;;16.00;99.90;;;;;;4950848;28;19935;-86
2022/05/11 14:31:07;;;;;;;;;;;16.00;99.90;;;;;;4934972;28;19930;-87
2022/05/11 14:33:35;;;;;;;;;;;16.00;99.90;;;;;;4923804;28;19930;-88
2022/05/11 14:36:02;;;;;;;;;;;16.00;99.90;;;;;;4939009;28;19931;-87
2022/05/11 14:38:30;;;;;;;;;;;16.10;99.90;;;;;;4928805;28;20024;-88
2022/05/11 14:40:59;;;;;;;;;;;16.00;99.90;;;;;;4929573;28;19934;-88
2022/05/11 14:43:26;;;;;;;;;;;15.90;99.90;;;;;;4939232;28;19941;-87
2022/05/11 14:46:02;;;;;;;;;;;15.90;99.90;;;;;;4906070;28;21806;-86
2022/05/11 14:48:32;;;;;;;;;;;15.80;99.90;;;;;;4940397;28;19934;-87
2022/05/11 14:50:59;;;;;;;;;;;15.70;99.90;;;;;;4911786;28;19930;-88
2022/05/11 14:53:27;;;;;;;;;;;15.60;99.90;;;;;;4949472;28;20401;-86
2022/05/11 14:55:57;;;;;;;;;;;15.50;99.90;;;;;;4925626;28;19945;-86
2022/05/11 15:04:03;;;;;;;;;;;15.60;99.90;;;;;;4913854;28;19926;-87
2022/05/11 15:06:35;;;;;;;;;;;15.70;99.90;;;;;;4923950;28;20271;-86
2022/05/11 15:09:03;;;;;;;;;;;15.70;99.90;;;;;;4955328;28;19930;-88
2022/05/11 15:14:26;;;;;;;;;;;15.80;99.90;;;;;;4932126;28;20579;-85
2022/05/11 15:16:56;;;;;;;;;;;15.40;99.90;;;;;;4938746;28;19926;-87
2022/05/11 15:19:24;;;;;;;;;;;14.40;99.90;;;;;;4913133;28;19953;-86
2022/05/11 15:21:51;;;;;;;;;;;15.50;99.90;;;;;;4928882;28;19930;-85
2022/05/11 15:24:19;;;;;;;;;;;15.50;99.90;;;;;;4963370;28;19933;-86
2022/05/11 15:26:47;;;;;;;;;;;15.40;99.90;;;;;;4945564;28;19937;-86
2022/05/11 15:29:15;;;;;;;;;;;15.30;99.90;;;;;;4928204;28;19949;-86
2022/05/11 15:31:42;;;;;;;;;;;15.30;99.90;;;;;;4937065;28;19933;-86
2022/05/11 15:34:12;;;;;;;;;;;15.30;99.90;;;;;;4930534;28;19926;-86
2022/05/11 15:36:39;;;;;;;;;;;15.30;99.90;;;;;;4931744;28;19949;-87
2022/05/11 15:39:12;;;;;;;;;;;15.30;99.90;;;;;;4941335;28;19927;-86
2022/05/11 15:41:54;;;;;;;;;;;15.40;99.90;;;;;;4917656;28;20266;-86
2022/05/11 15:44:26;;;;;;;;;;;15.40;99.90;;;;;;4922709;28;19930;-86
2022/05/11 15:46:57;;;;;;;;;;;15.50;99.90;;;;;;4931323;28;19954;-86